createdAt,value
2018-01-30T00:00:32.153Z,1010.1
2018-01-30T00:01:32.878Z,1010.1
2018-01-30T00:02:33.598Z,1010.1
2018-01-30T00:03:34.304Z,1010.1
2018-01-30T00:04:35.081Z,1010.1
2018-01-30T00:05:35.813Z,1010.2
2018-01-30T00:06:36.544Z,1010.2
2018-01-30T00:07:37.348Z,1010.2
2018-01-30T00:08:38.131Z,1010.2
2018-01-30T00:09:38.950Z,1010.1
2018-01-30T00:10:39.703Z,1010.2
2018-01-30T00:11:40.440Z,1010.2
2018-01-30T00:12:41.161Z,1010.2
2018-01-30T00:13:41.888Z,1010.2
2018-01-30T00:14:42.622Z,1010.2
2018-01-30T00:15:43.412Z,1010.2
2018-01-30T00:16:44.211Z,1010.2
2018-01-30T00:17:44.928Z,1010.2
2018-01-30T00:18:45.647Z,1010.2
2018-01-30T00:19:46.372Z,1010.3
2018-01-30T00:20:47.253Z,1010.3
2018-01-30T00:21:48.000Z,1010.2
2018-01-30T00:22:48.722Z,1010.3
2018-01-30T00:23:49.513Z,1010.2
2018-01-30T00:24:50.240Z,1010.3
2018-01-30T00:25:50.963Z,1010.3
2018-01-30T00:26:51.685Z,1010.3
2018-01-30T00:27:52.404Z,1010.3
2018-01-30T00:28:53.175Z,1010.3
2018-01-30T00:29:53.916Z,1010.3
2018-01-30T00:30:54.638Z,1010.3
2018-01-30T00:31:55.361Z,1010.4
2018-01-30T00:32:56.086Z,1010.4
2018-01-30T00:33:56.822Z,1010.4
2018-01-30T00:34:57.556Z,1010.5
2018-01-30T00:35:58.289Z,1010.4
2018-01-30T00:36:59.000Z,1010.5
2018-01-30T00:37:59.711Z,1010.5
2018-01-30T00:39:00.421Z,1010.5
2018-01-30T00:40:01.138Z,1010.5
2018-01-30T00:41:01.860Z,1010.6
2018-01-30T00:42:02.836Z,1010.6
2018-01-30T00:43:03.567Z,1010.7
2018-01-30T00:44:04.335Z,1010.7
2018-01-30T00:45:05.118Z,1010.6
2018-01-30T00:46:05.841Z,1010.7
2018-01-30T00:47:06.638Z,1010.7
2018-01-30T00:48:07.329Z,1010.8
2018-01-30T00:49:08.135Z,1010.8
2018-01-30T00:50:08.839Z,1010.8
2018-01-30T00:51:09.614Z,1010.9
2018-01-30T00:52:10.436Z,1011.0
2018-01-30T00:53:11.212Z,1011.0
2018-01-30T00:54:11.941Z,1011.0
2018-01-30T00:55:12.671Z,1011.0
2018-01-30T00:56:13.698Z,1011.0
2018-01-30T00:57:14.430Z,1011.0
2018-01-30T00:58:15.208Z,1011.0
2018-01-30T00:59:15.927Z,1011.0
2018-01-30T01:00:16.639Z,1011.0
2018-01-30T01:01:17.670Z,1011.0
2018-01-30T01:02:18.448Z,1011.0
2018-01-30T01:03:19.178Z,1011.0
2018-01-30T01:04:19.904Z,1011.0
2018-01-30T01:05:20.644Z,1011.0
2018-01-30T01:06:21.361Z,1011.0
2018-01-30T01:07:22.081Z,1011.0
2018-01-30T01:08:22.834Z,1011.0
2018-01-30T01:09:23.557Z,1011.0
2018-01-30T01:10:24.290Z,1011.0
2018-01-30T01:11:25.053Z,1011.1
2018-01-30T01:12:25.781Z,1011.1
2018-01-30T01:13:26.499Z,1011.1
2018-01-30T01:14:27.228Z,1011.2
2018-01-30T01:15:27.949Z,1011.2
2018-01-30T01:16:28.736Z,1011.1
2018-01-30T01:17:29.515Z,1011.2
2018-01-30T01:18:30.314Z,1011.2
2018-01-30T01:19:31.038Z,1011.2
2018-01-30T01:20:31.768Z,1011.2
2018-01-30T01:21:32.601Z,1011.2
2018-01-30T01:22:33.330Z,1011.2
2018-01-30T01:23:34.054Z,1011.2
2018-01-30T01:24:34.770Z,1011.2
2018-01-30T01:25:35.489Z,1011.2
2018-01-30T01:26:36.207Z,1011.2
2018-01-30T01:27:36.985Z,1011.2
2018-01-30T01:28:37.726Z,1011.1
2018-01-30T01:29:38.490Z,1011.1
2018-01-30T01:30:39.216Z,1011.1
2018-01-30T01:31:39.999Z,1011.1
2018-01-30T01:32:40.829Z,1011.2
2018-01-30T01:33:41.558Z,1011.1
2018-01-30T01:34:42.302Z,1011.1
2018-01-30T01:35:43.028Z,1011.2
2018-01-30T01:36:43.752Z,1011.1
2018-01-30T01:37:44.480Z,1011.2
2018-01-30T01:38:45.198Z,1011.1
2018-01-30T01:39:45.978Z,1011.1
2018-01-30T01:40:46.700Z,1011.2
2018-01-30T01:41:47.409Z,1011.1
2018-01-30T01:42:48.151Z,1011.1
2018-01-30T01:43:48.931Z,1011.1
2018-01-30T01:44:49.668Z,1011.1
2018-01-30T01:45:50.389Z,1011.1
2018-01-30T01:46:51.112Z,1011.0
2018-01-30T01:47:51.921Z,1011.0
2018-01-30T01:48:52.642Z,1011.0
2018-01-30T01:49:53.437Z,1011.0
2018-01-30T01:50:54.465Z,1011.0
2018-01-30T01:51:55.189Z,1011.1
2018-01-30T01:52:55.901Z,1011.0
2018-01-30T01:53:56.618Z,1011.1
2018-01-30T01:54:57.343Z,1011.0
2018-01-30T01:55:58.071Z,1011.1
2018-01-30T01:56:58.830Z,1011.1
2018-01-30T01:57:59.560Z,1011.1
2018-01-30T01:59:00.304Z,1011.1
2018-01-30T02:00:01.085Z,1011.0
2018-01-30T02:01:01.836Z,1011.1
2018-01-30T02:02:02.620Z,1011.1
2018-01-30T02:03:03.355Z,1011.1
2018-01-30T02:04:04.141Z,1011.1
2018-01-30T02:05:04.927Z,1011.0
2018-01-30T02:06:05.657Z,1011.1
2018-01-30T02:07:06.369Z,1011.0
2018-01-30T02:08:07.100Z,1011.1
2018-01-30T02:09:07.839Z,1011.0
2018-01-30T02:10:08.606Z,1011.0
2018-01-30T02:11:09.337Z,1011.0
2018-01-30T02:12:10.070Z,1011.0
2018-01-30T02:13:10.861Z,1011.0
2018-01-30T02:14:11.582Z,1010.9
2018-01-30T02:15:12.306Z,1010.9
2018-01-30T02:16:13.021Z,1010.9
2018-01-30T02:17:13.784Z,1010.8
2018-01-30T02:18:14.559Z,1010.8
2018-01-30T02:19:15.585Z,1010.8
2018-01-30T02:20:16.319Z,1010.8
2018-01-30T02:21:17.095Z,1010.7
2018-01-30T02:22:17.831Z,1010.7
2018-01-30T02:23:18.543Z,1010.7
2018-01-30T02:24:19.314Z,1010.7
2018-01-30T02:25:20.090Z,1010.7
2018-01-30T02:26:20.869Z,1010.7
2018-01-30T02:27:21.660Z,1010.7
2018-01-30T02:28:22.391Z,1010.7
2018-01-30T02:29:23.154Z,1010.7
2018-01-30T02:30:23.884Z,1010.7
2018-01-30T02:31:24.601Z,1010.7
2018-01-30T02:32:25.326Z,1010.7
2018-01-30T02:33:26.060Z,1010.8
2018-01-30T02:34:26.837Z,1010.7
2018-01-30T02:35:27.631Z,1010.7
2018-01-30T02:36:28.348Z,1010.7
2018-01-30T02:37:29.076Z,1010.7
2018-01-30T02:38:29.801Z,1010.7
2018-01-30T02:39:30.648Z,1010.7
2018-01-30T02:40:31.373Z,1010.7
2018-01-30T02:41:32.103Z,1010.7
2018-01-30T02:42:32.868Z,1010.7
2018-01-30T02:43:33.588Z,1010.7
2018-01-30T02:44:34.359Z,1010.7
2018-01-30T02:45:35.144Z,1010.7
2018-01-30T02:46:35.909Z,1010.7
2018-01-30T02:47:36.688Z,1010.8
2018-01-30T02:48:37.408Z,1010.8
2018-01-30T02:49:38.161Z,1010.8
2018-01-30T02:50:38.870Z,1010.8
2018-01-30T02:51:39.549Z,1010.8
2018-01-30T02:52:40.278Z,1010.8
2018-01-30T02:53:41.009Z,1010.8
2018-01-30T02:54:41.741Z,1010.9
2018-01-30T02:55:42.462Z,1010.9
2018-01-30T02:56:43.208Z,1010.9
2018-01-30T02:57:43.953Z,1011.0
2018-01-30T02:58:44.754Z,1011.0
2018-01-30T02:59:45.529Z,1011.0
2018-01-30T03:00:46.249Z,1011.0
2018-01-30T03:01:46.990Z,1011.0
2018-01-30T03:02:47.707Z,1011.0
2018-01-30T03:03:48.427Z,1011.0
2018-01-30T03:04:49.211Z,1011.0
2018-01-30T03:05:49.940Z,1011.1
2018-01-30T03:06:50.657Z,1011.1
2018-01-30T03:07:51.432Z,1011.1
2018-01-30T03:08:52.171Z,1011.1
2018-01-30T03:09:52.940Z,1011.1
2018-01-30T03:10:53.663Z,1011.1
2018-01-30T03:11:54.381Z,1011.0
2018-01-30T03:12:55.193Z,1011.1
2018-01-30T03:13:55.956Z,1011.1
2018-01-30T03:14:56.730Z,1011.0
2018-01-30T03:15:57.450Z,1011.0
2018-01-30T03:16:58.165Z,1011.0
2018-01-30T03:17:58.886Z,1011.0
2018-01-30T03:18:59.600Z,1011.0
2018-01-30T03:20:00.324Z,1011.0
2018-01-30T03:21:01.051Z,1011.0
2018-01-30T03:22:01.840Z,1011.0
2018-01-30T03:23:02.560Z,1011.0
2018-01-30T03:24:03.292Z,1011.0
2018-01-30T03:25:04.013Z,1011.0
2018-01-30T03:26:04.735Z,1011.1
2018-01-30T03:27:05.520Z,1011.0
2018-01-30T03:28:06.254Z,1011.0
2018-01-30T03:29:07.021Z,1011.0
2018-01-30T03:30:07.712Z,1011.1
2018-01-30T03:31:08.444Z,1011.0
2018-01-30T03:32:09.479Z,1011.1
2018-01-30T03:33:10.264Z,1011.0
2018-01-30T03:34:10.984Z,1011.1
2018-01-30T03:35:11.738Z,1011.1
2018-01-30T03:36:12.463Z,1011.0
2018-01-30T03:37:13.319Z,1011.1
2018-01-30T03:38:14.082Z,1011.0
2018-01-30T03:39:14.802Z,1011.1
2018-01-30T03:40:15.601Z,1011.0
2018-01-30T03:41:16.322Z,1011.1
2018-01-30T03:42:17.126Z,1011.1
2018-01-30T03:43:17.905Z,1011.1
2018-01-30T03:44:18.623Z,1011.1
2018-01-30T03:45:19.354Z,1011.1
2018-01-30T03:46:20.072Z,1011.1
2018-01-30T03:47:20.841Z,1011.1
2018-01-30T03:48:21.563Z,1011.1
2018-01-30T03:49:22.287Z,1011.2
2018-01-30T03:50:23.070Z,1011.2
2018-01-30T03:51:23.873Z,1011.2
2018-01-30T03:52:24.651Z,1011.2
2018-01-30T03:53:25.381Z,1011.2
2018-01-30T03:54:26.122Z,1011.2
2018-01-30T03:55:26.843Z,1011.2
2018-01-30T03:56:27.638Z,1011.2
2018-01-30T03:57:28.421Z,1011.2
2018-01-30T03:58:29.154Z,1011.2
2018-01-30T03:59:29.923Z,1011.2
2018-01-30T04:00:30.643Z,1011.3
2018-01-30T04:01:31.375Z,1011.2
2018-01-30T04:02:32.093Z,1011.2
2018-01-30T04:03:32.818Z,1011.2
2018-01-30T04:04:33.589Z,1011.2
2018-01-30T04:05:34.322Z,1011.2
2018-01-30T04:06:35.044Z,1011.2
2018-01-30T04:07:35.853Z,1011.1
2018-01-30T04:08:36.581Z,1011.2
2018-01-30T04:09:37.394Z,1011.2
2018-01-30T04:10:38.171Z,1011.1
2018-01-30T04:11:38.923Z,1011.2
2018-01-30T04:12:39.643Z,1011.2
2018-01-30T04:13:40.426Z,1011.2
2018-01-30T04:14:41.134Z,1011.2
2018-01-30T04:15:41.864Z,1011.2
2018-01-30T04:16:42.615Z,1011.2
2018-01-30T04:17:43.334Z,1011.2
2018-01-30T04:18:44.122Z,1011.2
2018-01-30T04:19:44.855Z,1011.2
2018-01-30T04:20:45.653Z,1011.2
2018-01-30T04:21:46.375Z,1011.2
2018-01-30T04:22:47.155Z,1011.2
2018-01-30T04:23:47.966Z,1011.2
2018-01-30T04:24:48.679Z,1011.2
2018-01-30T04:25:49.413Z,1011.2
2018-01-30T04:26:50.210Z,1011.2
2018-01-30T04:27:50.964Z,1011.2
2018-01-30T04:28:51.699Z,1011.3
2018-01-30T04:29:52.473Z,1011.3
2018-01-30T04:30:53.195Z,1011.3
2018-01-30T04:31:53.926Z,1011.3
2018-01-30T04:32:54.685Z,1011.3
2018-01-30T04:33:55.404Z,1011.3
2018-01-30T04:34:56.124Z,1011.3
2018-01-30T04:35:57.257Z,1011.3
2018-01-30T04:36:57.967Z,1011.3
2018-01-30T04:37:58.630Z,1011.3
2018-01-30T04:38:59.362Z,1011.3
2018-01-30T04:40:00.090Z,1011.3
2018-01-30T04:41:00.870Z,1011.3
2018-01-30T04:42:01.652Z,1011.3
2018-01-30T04:43:02.369Z,1011.3
2018-01-30T04:44:03.090Z,1011.3
2018-01-30T04:45:03.816Z,1011.4
2018-01-30T04:46:04.663Z,1011.4
2018-01-30T04:47:05.384Z,1011.4
2018-01-30T04:48:06.116Z,1011.4
2018-01-30T04:49:06.892Z,1011.4
2018-01-30T04:50:07.613Z,1011.4
2018-01-30T04:51:08.358Z,1011.4
2018-01-30T04:52:09.121Z,1011.4
2018-01-30T04:53:10.203Z,1011.4
2018-01-30T04:54:10.914Z,1011.4
2018-01-30T04:55:11.633Z,1011.5
2018-01-30T04:56:12.365Z,1011.5
2018-01-30T04:57:13.098Z,1011.5
2018-01-30T04:58:13.863Z,1011.5
2018-01-30T04:59:14.592Z,1011.5
2018-01-30T05:00:15.310Z,1011.5
2018-01-30T05:01:16.032Z,1011.4
2018-01-30T05:02:16.754Z,1011.4
2018-01-30T05:03:17.552Z,1011.4
2018-01-30T05:04:18.354Z,1011.4
2018-01-30T05:05:19.173Z,1011.4
2018-01-30T05:06:19.877Z,1011.4
2018-01-30T05:07:20.602Z,1011.4
2018-01-30T05:08:21.342Z,1011.4
2018-01-30T05:09:22.105Z,1011.4
2018-01-30T05:10:22.820Z,1011.4
2018-01-30T05:11:23.553Z,1011.4
2018-01-30T05:12:24.282Z,1011.4
2018-01-30T05:13:25.008Z,1011.4
2018-01-30T05:14:25.734Z,1011.4
2018-01-30T05:15:26.460Z,1011.5
2018-01-30T05:16:27.181Z,1011.5
2018-01-30T05:17:27.912Z,1011.5
2018-01-30T05:18:28.892Z,1011.5
2018-01-30T05:19:29.630Z,1011.5
2018-01-30T05:20:30.404Z,1011.5
2018-01-30T05:21:31.133Z,1011.5
2018-01-30T05:22:31.852Z,1011.5
2018-01-30T05:23:32.585Z,1011.6
2018-01-30T05:24:33.625Z,1011.6
2018-01-30T05:25:34.375Z,1011.6
2018-01-30T05:26:35.159Z,1011.6
2018-01-30T05:27:35.876Z,1011.6
2018-01-30T05:28:36.594Z,1011.6
2018-01-30T05:29:37.323Z,1011.6
2018-01-30T05:30:38.051Z,1011.6
2018-01-30T05:31:38.775Z,1011.6
2018-01-30T05:32:39.522Z,1011.6
2018-01-30T05:33:40.256Z,1011.7
2018-01-30T05:34:41.073Z,1011.7
2018-01-30T05:35:41.800Z,1011.7
2018-01-30T05:36:42.549Z,1011.7
2018-01-30T05:37:43.340Z,1011.7
2018-01-30T05:38:44.122Z,1011.7
2018-01-30T05:39:44.959Z,1011.7
2018-01-30T05:40:45.733Z,1011.8
2018-01-30T05:41:46.451Z,1011.8
2018-01-30T05:42:47.162Z,1011.7
2018-01-30T05:43:47.895Z,1011.7
2018-01-30T05:44:48.995Z,1011.8
2018-01-30T05:45:49.714Z,1011.8
2018-01-30T05:46:50.434Z,1011.8
2018-01-30T05:47:51.181Z,1011.7
2018-01-30T05:48:51.907Z,1011.7
2018-01-30T05:49:52.624Z,1011.7
2018-01-30T05:50:53.414Z,1011.6
2018-01-30T05:51:54.242Z,1011.7
2018-01-30T05:52:54.903Z,1011.7
2018-01-30T05:53:55.631Z,1011.7
2018-01-30T05:54:56.351Z,1011.7
2018-01-30T05:55:57.076Z,1011.7
2018-01-30T05:56:58.093Z,1011.7
2018-01-30T05:57:58.819Z,1011.7
2018-01-30T05:58:59.534Z,1011.7
2018-01-30T06:00:00.351Z,1011.7
2018-01-30T06:01:01.086Z,1011.8
2018-01-30T06:02:01.814Z,1011.9
2018-01-30T06:03:02.618Z,1011.9
2018-01-30T06:04:03.393Z,1011.9
2018-01-30T06:05:04.112Z,1011.9
2018-01-30T06:06:04.851Z,1011.8
2018-01-30T06:07:05.603Z,1011.8
2018-01-30T06:08:06.322Z,1011.9
2018-01-30T06:09:07.343Z,1011.8
2018-01-30T06:10:08.144Z,1011.9
2018-01-30T06:11:08.866Z,1011.9
2018-01-30T06:12:09.662Z,1012.0
2018-01-30T06:13:10.421Z,1011.9
2018-01-30T06:14:11.205Z,1011.9
2018-01-30T06:15:11.980Z,1011.9
2018-01-30T06:16:12.708Z,1011.9
2018-01-30T06:17:13.423Z,1011.9
2018-01-30T06:18:14.226Z,1011.9
2018-01-30T06:19:15.078Z,1012.0
2018-01-30T06:20:15.873Z,1012.0
2018-01-30T06:21:16.602Z,1012.0
2018-01-30T06:22:17.397Z,1012.0
2018-01-30T06:23:18.167Z,1012.1
2018-01-30T06:24:18.897Z,1012.1
2018-01-30T06:25:19.633Z,1012.1
2018-01-30T06:26:20.341Z,1012.1
2018-01-30T06:27:21.054Z,1012.1
2018-01-30T06:28:21.784Z,1012.1
2018-01-30T06:29:22.932Z,1012.2
2018-01-30T06:30:24.684Z,1012.1
2018-01-30T06:31:25.666Z,1012.2
2018-01-30T06:32:26.578Z,1012.2
2018-01-30T06:33:27.305Z,1012.2
2018-01-30T06:34:28.032Z,1012.3
2018-01-30T06:35:28.774Z,1012.3
2018-01-30T06:36:29.503Z,1012.3
2018-01-30T06:37:30.224Z,1012.3
2018-01-30T06:38:30.939Z,1012.3
2018-01-30T06:39:31.664Z,1012.2
2018-01-30T06:40:32.396Z,1012.2
2018-01-30T06:41:33.832Z,1012.2
2018-01-30T06:42:34.758Z,1012.2
2018-01-30T06:43:35.474Z,1012.2
2018-01-30T06:44:36.312Z,1012.3
2018-01-30T06:45:37.044Z,1012.3
2018-01-30T06:46:37.782Z,1012.2
2018-01-30T06:47:38.514Z,1012.2
2018-01-30T06:48:39.240Z,1012.2
2018-01-30T06:49:39.978Z,1012.2
2018-01-30T06:50:40.732Z,1012.2
2018-01-30T06:51:41.452Z,1012.2
2018-01-30T06:52:42.195Z,1012.2
2018-01-30T06:53:42.906Z,1012.2
2018-01-30T06:54:43.633Z,1012.2
2018-01-30T06:55:44.423Z,1012.3
2018-01-30T06:56:45.143Z,1012.3
2018-01-30T06:57:45.961Z,1012.2
2018-01-30T06:58:46.799Z,1012.2
2018-01-30T06:59:47.532Z,1012.2
2018-01-30T07:00:48.622Z,1012.1
2018-01-30T07:01:49.355Z,1012.1
2018-01-30T07:02:50.084Z,1012.1
2018-01-30T07:03:50.798Z,1012.1
2018-01-30T07:04:51.622Z,1012.1
2018-01-30T07:05:52.344Z,1012.2
2018-01-30T07:06:53.075Z,1012.2
2018-01-30T07:07:53.917Z,1012.2
2018-01-30T07:08:54.703Z,1012.2
2018-01-30T07:09:55.453Z,1012.2
2018-01-30T07:10:56.181Z,1012.2
2018-01-30T07:11:56.901Z,1012.2
2018-01-30T07:12:57.635Z,1012.1
2018-01-30T07:13:58.363Z,1012.2
2018-01-30T07:14:59.083Z,1012.2
2018-01-30T07:15:59.820Z,1012.2
2018-01-30T07:17:00.865Z,1012.3
2018-01-30T07:18:01.654Z,1012.3
2018-01-30T07:19:02.384Z,1012.4
2018-01-30T07:20:03.110Z,1012.3
2018-01-30T07:21:03.843Z,1012.4
2018-01-30T07:22:04.589Z,1012.4
2018-01-30T07:23:05.396Z,1012.4
2018-01-30T07:24:06.102Z,1012.4
2018-01-30T07:25:06.833Z,1012.4
2018-01-30T07:26:07.563Z,1012.3
2018-01-30T07:27:08.288Z,1012.4
2018-01-30T07:28:09.002Z,1012.4
2018-01-30T07:29:09.786Z,1012.4
2018-01-30T07:30:10.539Z,1012.4
2018-01-30T07:31:11.287Z,1012.5
2018-01-30T07:32:12.092Z,1012.5
2018-01-30T07:33:12.911Z,1012.5
2018-01-30T07:34:13.620Z,1012.4
2018-01-30T07:35:14.342Z,1012.4
2018-01-30T07:36:15.070Z,1012.5
2018-01-30T07:37:15.806Z,1012.5
2018-01-30T07:38:16.522Z,1012.5
2018-01-30T07:39:17.241Z,1012.4
2018-01-30T07:40:18.251Z,1012.5
2018-01-30T07:41:18.973Z,1012.5
2018-01-30T07:42:19.696Z,1012.5
2018-01-30T07:43:20.424Z,1012.4
2018-01-30T07:44:21.167Z,1012.4
2018-01-30T07:45:21.946Z,1012.4
2018-01-30T07:46:22.675Z,1012.4
2018-01-30T07:47:23.484Z,1012.4
2018-01-30T07:48:24.233Z,1012.3
2018-01-30T07:49:24.951Z,1012.3
2018-01-30T07:50:25.673Z,1012.3
2018-01-30T07:51:26.404Z,1012.3
2018-01-30T07:52:27.223Z,1012.4
2018-01-30T07:53:28.014Z,1012.4
2018-01-30T07:54:28.732Z,1012.4
2018-01-30T07:55:29.454Z,1012.4
2018-01-30T07:56:30.168Z,1012.4
2018-01-30T07:57:30.960Z,1012.4
2018-01-30T07:58:31.710Z,1012.4
2018-01-30T07:59:32.441Z,1012.4
2018-01-30T08:00:33.218Z,1012.4
2018-01-30T08:01:33.895Z,1012.4
2018-01-30T08:02:34.629Z,1012.4
2018-01-30T08:03:35.369Z,1012.5
2018-01-30T08:04:36.113Z,1012.4
2018-01-30T08:05:36.822Z,1012.4
2018-01-30T08:06:37.550Z,1012.4
2018-01-30T08:07:38.284Z,1012.4
2018-01-30T08:08:39.008Z,1012.4
2018-01-30T08:09:39.730Z,1012.3
2018-01-30T08:10:40.466Z,1012.3
2018-01-30T08:11:41.202Z,1012.3
2018-01-30T08:12:41.944Z,1012.3
2018-01-30T08:13:42.675Z,1012.3
2018-01-30T08:14:43.410Z,1012.3
2018-01-30T08:15:44.134Z,1012.4
2018-01-30T08:16:44.855Z,1012.4
2018-01-30T08:17:45.625Z,1012.4
2018-01-30T08:18:46.420Z,1012.4
2018-01-30T08:19:47.154Z,1012.4
2018-01-30T08:20:47.880Z,1012.5
2018-01-30T08:21:48.610Z,1012.4
2018-01-30T08:22:49.336Z,1012.5
2018-01-30T08:23:50.142Z,1012.5
2018-01-30T08:24:50.874Z,1012.5
2018-01-30T08:25:51.594Z,1012.5
2018-01-30T08:26:52.320Z,1012.4
2018-01-30T08:27:53.067Z,1012.4
2018-01-30T08:28:53.824Z,1012.4
2018-01-30T08:29:54.553Z,1012.5
2018-01-30T08:30:55.281Z,1012.4
2018-01-30T08:31:56.094Z,1012.4
2018-01-30T08:32:56.979Z,1012.4
2018-01-30T08:33:57.708Z,1012.4
2018-01-30T08:34:58.431Z,1012.5
2018-01-30T08:35:59.222Z,1012.4
2018-01-30T08:36:59.957Z,1012.4
2018-01-30T08:38:00.735Z,1012.4
2018-01-30T08:39:01.414Z,1012.4
2018-01-30T08:40:02.158Z,1012.4
2018-01-30T08:41:02.932Z,1012.4
2018-01-30T08:42:03.680Z,1012.4
2018-01-30T08:43:04.404Z,1012.5
2018-01-30T08:44:05.134Z,1012.5
2018-01-30T08:45:05.886Z,1012.5
2018-01-30T08:46:06.620Z,1012.5
2018-01-30T08:47:07.344Z,1012.4
2018-01-30T08:48:08.072Z,1012.4
2018-01-30T08:49:08.803Z,1012.5
2018-01-30T08:50:09.522Z,1012.5
2018-01-30T08:51:10.247Z,1012.4
2018-01-30T08:52:10.975Z,1012.5
2018-01-30T08:53:11.746Z,1012.5
2018-01-30T08:54:12.564Z,1012.5
2018-01-30T08:55:13.345Z,1012.5
2018-01-30T08:56:14.067Z,1012.5
2018-01-30T08:57:14.882Z,1012.5
2018-01-30T08:58:15.613Z,1012.5
2018-01-30T08:59:16.345Z,1012.5
2018-01-30T09:00:17.064Z,1012.5
2018-01-30T09:01:17.799Z,1012.5
2018-01-30T09:02:18.521Z,1012.5
2018-01-30T09:03:19.246Z,1012.5
2018-01-30T09:04:19.997Z,1012.5
2018-01-30T09:05:20.721Z,1012.5
2018-01-30T09:06:21.454Z,1012.4
2018-01-30T09:07:22.173Z,1012.5
2018-01-30T09:08:22.906Z,1012.5
2018-01-30T09:09:23.678Z,1012.5
2018-01-30T09:10:24.408Z,1012.5
2018-01-30T09:11:25.142Z,1012.4
2018-01-30T09:12:25.867Z,1012.4
2018-01-30T09:13:26.593Z,1012.4
2018-01-30T09:14:27.317Z,1012.4
2018-01-30T09:15:28.067Z,1012.3
2018-01-30T09:16:28.825Z,1012.4
2018-01-30T09:17:29.556Z,1012.4
2018-01-30T09:18:30.352Z,1012.4
2018-01-30T09:19:31.092Z,1012.5
2018-01-30T09:20:31.910Z,1012.4
2018-01-30T09:21:32.643Z,1012.4
2018-01-30T09:22:33.382Z,1012.4
2018-01-30T09:23:34.112Z,1012.4
2018-01-30T09:24:34.847Z,1012.4
2018-01-30T09:25:35.847Z,1012.5
2018-01-30T09:26:36.603Z,1012.5
2018-01-30T09:27:37.342Z,1012.5
2018-01-30T09:28:38.085Z,1012.6
2018-01-30T09:29:38.851Z,1012.6
2018-01-30T09:30:39.876Z,1012.6
2018-01-30T09:31:40.624Z,1012.6
2018-01-30T09:32:41.350Z,1012.6
2018-01-30T09:33:42.089Z,1012.5
2018-01-30T09:34:42.824Z,1012.6
2018-01-30T09:35:43.852Z,1012.6
2018-01-30T09:36:44.664Z,1012.6
2018-01-30T09:37:45.391Z,1012.6
2018-01-30T09:38:46.137Z,1012.6
2018-01-30T09:39:46.964Z,1012.7
2018-01-30T09:40:47.706Z,1012.7
2018-01-30T09:41:48.482Z,1012.7
2018-01-30T09:42:49.285Z,1012.7
2018-01-30T09:43:50.012Z,1012.7
2018-01-30T09:44:50.739Z,1012.6
2018-01-30T09:45:51.483Z,1012.6
2018-01-30T09:46:52.213Z,1012.6
2018-01-30T09:47:53.031Z,1012.6
2018-01-30T09:48:53.764Z,1012.7
2018-01-30T09:49:54.504Z,1012.6
2018-01-30T09:50:55.342Z,1012.7
2018-01-30T09:51:56.148Z,1012.6
2018-01-30T09:52:56.883Z,1012.6
2018-01-30T09:53:57.709Z,1012.6
2018-01-30T09:54:58.435Z,1012.6
2018-01-30T09:55:59.457Z,1012.6
2018-01-30T09:57:00.179Z,1012.6
2018-01-30T09:58:00.923Z,1012.7
2018-01-30T09:59:01.645Z,1012.6
2018-01-30T10:00:02.372Z,1012.6
2018-01-30T10:01:03.362Z,1012.6
2018-01-30T10:02:04.089Z,1012.7
2018-01-30T10:03:04.820Z,1012.7
2018-01-30T10:04:05.644Z,1012.6
2018-01-30T10:05:06.441Z,1012.7
2018-01-30T10:06:07.180Z,1012.7
2018-01-30T10:07:07.915Z,1012.7
2018-01-30T10:08:08.640Z,1012.7
2018-01-30T10:09:09.376Z,1012.7
2018-01-30T10:10:10.104Z,1012.8
2018-01-30T10:11:10.859Z,1012.7
2018-01-30T10:12:11.669Z,1012.7
2018-01-30T10:13:12.482Z,1012.7
2018-01-30T10:14:13.231Z,1012.7
2018-01-30T10:15:13.929Z,1012.7
2018-01-30T10:16:14.666Z,1012.7
2018-01-30T10:17:15.386Z,1012.7
2018-01-30T10:18:16.120Z,1012.7
2018-01-30T10:19:16.972Z,1012.6
2018-01-30T10:20:17.715Z,1012.6
2018-01-30T10:21:18.514Z,1012.7
2018-01-30T10:22:19.245Z,1012.6
2018-01-30T10:23:19.969Z,1012.7
2018-01-30T10:24:20.775Z,1012.6
2018-01-30T10:25:21.512Z,1012.7
2018-01-30T10:26:22.257Z,1012.7
2018-01-30T10:27:22.984Z,1012.7
2018-01-30T10:28:23.727Z,1012.7
2018-01-30T10:29:24.535Z,1012.7
2018-01-30T10:30:25.240Z,1012.7
2018-01-30T10:31:25.984Z,1012.7
2018-01-30T10:32:26.762Z,1012.7
2018-01-30T10:33:27.508Z,1012.7
2018-01-30T10:34:28.283Z,1012.7
2018-01-30T10:35:29.073Z,1012.7
2018-01-30T10:36:29.799Z,1012.7
2018-01-30T10:37:30.535Z,1012.7
2018-01-30T10:38:31.282Z,1012.7
2018-01-30T10:39:32.020Z,1012.7
2018-01-30T10:40:32.861Z,1012.7
2018-01-30T10:41:33.557Z,1012.7
2018-01-30T10:42:34.285Z,1012.8
2018-01-30T10:43:35.014Z,1012.8
2018-01-30T10:44:35.752Z,1012.8
2018-01-30T10:45:36.490Z,1012.7
2018-01-30T10:46:37.288Z,1012.7
2018-01-30T10:47:38.104Z,1012.7
2018-01-30T10:48:38.921Z,1012.7
2018-01-30T10:49:39.714Z,1012.8
2018-01-30T10:50:40.489Z,1012.8
2018-01-30T10:51:41.218Z,1012.8
2018-01-30T10:52:41.886Z,1012.7
2018-01-30T10:53:42.610Z,1012.7
2018-01-30T10:54:43.402Z,1012.7
2018-01-30T10:55:44.142Z,1012.7
2018-01-30T10:56:44.888Z,1012.7
2018-01-30T10:57:45.680Z,1012.7
2018-01-30T10:58:46.437Z,1012.7
2018-01-30T10:59:47.530Z,1012.7
2018-01-30T11:00:48.339Z,1012.7
2018-01-30T11:01:49.020Z,1012.7
2018-01-30T11:02:49.744Z,1012.7
2018-01-30T11:03:50.528Z,1012.7
2018-01-30T11:04:51.271Z,1012.7
2018-01-30T11:05:52.083Z,1012.7
2018-01-30T11:06:52.814Z,1012.7
2018-01-30T11:07:53.547Z,1012.6
2018-01-30T11:08:54.326Z,1012.6
2018-01-30T11:09:55.062Z,1012.6
2018-01-30T11:10:55.814Z,1012.5
2018-01-30T11:11:56.612Z,1012.5
2018-01-30T11:12:57.425Z,1012.6
2018-01-30T11:13:58.158Z,1012.6
2018-01-30T11:14:58.993Z,1012.7
2018-01-30T11:15:59.722Z,1012.7
2018-01-30T11:17:00.502Z,1012.7
2018-01-30T11:18:01.285Z,1012.6
2018-01-30T11:19:02.106Z,1012.6
2018-01-30T11:20:02.874Z,1012.5
2018-01-30T11:21:03.681Z,1012.5
2018-01-30T11:22:04.451Z,1012.6
2018-01-30T11:23:05.186Z,1012.6
2018-01-30T11:24:05.918Z,1012.5
2018-01-30T11:25:06.661Z,1012.6
2018-01-30T11:26:07.455Z,1012.5
2018-01-30T11:27:08.185Z,1012.5
2018-01-30T11:28:08.925Z,1012.5
2018-01-30T11:29:09.658Z,1012.5
2018-01-30T11:30:10.404Z,1012.5
2018-01-30T11:31:11.203Z,1012.5
2018-01-30T11:32:11.960Z,1012.5
2018-01-30T11:33:12.694Z,1012.5
2018-01-30T11:34:13.426Z,1012.5
2018-01-30T11:35:14.462Z,1012.5
2018-01-30T11:36:15.192Z,1012.5
2018-01-30T11:37:15.910Z,1012.6
2018-01-30T11:38:16.652Z,1012.6
2018-01-30T11:39:17.384Z,1012.5
2018-01-30T11:40:18.134Z,1012.5
2018-01-30T11:41:18.977Z,1012.5
2018-01-30T11:42:19.644Z,1012.5
2018-01-30T11:43:20.378Z,1012.5
2018-01-30T11:44:21.176Z,1012.5
2018-01-30T11:45:21.910Z,1012.5
2018-01-30T11:46:22.967Z,1012.4
2018-01-30T11:47:23.754Z,1012.4
2018-01-30T11:48:24.483Z,1012.4
2018-01-30T11:49:25.216Z,1012.4
2018-01-30T11:50:25.959Z,1012.5
2018-01-30T11:51:26.865Z,1012.4
2018-01-30T11:52:27.720Z,1012.4
2018-01-30T11:53:28.442Z,1012.4
2018-01-30T11:54:29.246Z,1012.3
2018-01-30T11:55:30.032Z,1012.3
2018-01-30T11:56:30.783Z,1012.3
2018-01-30T11:57:31.524Z,1012.3
2018-01-30T11:58:32.252Z,1012.3
2018-01-30T11:59:33.919Z,1012.3
2018-01-30T12:00:35.000Z,1012.3
2018-01-30T12:01:35.729Z,1012.3
2018-01-30T12:02:37.786Z,1012.2
2018-01-30T12:03:38.814Z,1012.2
2018-01-30T12:04:39.544Z,1012.3
2018-01-30T12:05:40.457Z,1012.3
2018-01-30T12:06:42.295Z,1012.2
2018-01-30T12:07:43.594Z,1012.2
2018-01-30T12:08:44.318Z,1012.2
2018-01-30T12:09:45.056Z,1012.2
2018-01-30T12:10:45.874Z,1012.1
2018-01-30T12:11:46.653Z,1012.1
2018-01-30T12:12:47.394Z,1012.0
2018-01-30T12:13:48.113Z,1012.0
2018-01-30T12:14:48.846Z,1012.0
2018-01-30T12:15:49.570Z,1012.1
2018-01-30T12:16:50.363Z,1012.1
2018-01-30T12:17:51.154Z,1012.0
2018-01-30T12:18:51.942Z,1012.0
2018-01-30T12:19:52.734Z,1012.0
2018-01-30T12:20:53.410Z,1011.9
2018-01-30T12:21:54.154Z,1011.9
2018-01-30T12:22:55.173Z,1011.9
2018-01-30T12:23:55.935Z,1011.9
2018-01-30T12:24:56.645Z,1011.9
2018-01-30T12:25:57.565Z,1011.9
2018-01-30T12:26:58.560Z,1011.8
2018-01-30T12:27:59.363Z,1011.8
2018-01-30T12:29:00.397Z,1011.8
2018-01-30T12:30:01.176Z,1011.8
2018-01-30T12:31:01.960Z,1011.8
2018-01-30T12:32:02.686Z,1011.7
2018-01-30T12:33:03.882Z,1011.7
2018-01-30T12:34:04.584Z,1011.7
2018-01-30T12:35:05.387Z,1011.8
2018-01-30T12:36:06.232Z,1011.8
2018-01-30T12:37:07.033Z,1011.7
2018-01-30T12:38:08.161Z,1011.7